createdAt,value
2019-03-24T00:02:00.074Z,4.94
2019-03-24T00:04:28.603Z,4.87
2019-03-24T00:06:57.069Z,4.80
2019-03-24T00:09:25.547Z,4.91
2019-03-24T00:11:54.004Z,4.77
2019-03-24T00:14:22.459Z,4.74
2019-03-24T00:16:51.016Z,4.73
2019-03-24T00:19:19.522Z,4.69
2019-03-24T00:21:48.256Z,4.74
2019-03-24T00:24:16.681Z,4.56
2019-03-24T00:26:45.102Z,4.61
2019-03-24T00:29:13.575Z,4.62
2019-03-24T00:31:41.994Z,4.63
2019-03-24T00:34:10.449Z,4.57
2019-03-24T00:36:38.929Z,4.40
2019-03-24T00:39:07.719Z,4.33
2019-03-24T00:41:36.151Z,4.38
2019-03-24T00:44:04.721Z,4.28
2019-03-24T00:46:33.255Z,4.36
2019-03-24T00:49:01.685Z,4.46
2019-03-24T00:51:30.195Z,4.31
2019-03-24T00:53:58.626Z,4.35
2019-03-24T00:56:27.148Z,4.11
2019-03-24T00:58:55.999Z,4.11
2019-03-24T01:01:24.512Z,4.02
2019-03-24T01:03:52.931Z,4.08
2019-03-24T01:06:21.702Z,4.24
2019-03-24T01:08:50.316Z,4.24
2019-03-24T01:11:18.840Z,4.05
2019-03-24T01:13:48.303Z,3.98
2019-03-24T01:16:16.759Z,4.03
2019-03-24T01:18:45.252Z,3.90
2019-03-24T01:21:13.794Z,3.98
2019-03-24T01:23:42.289Z,3.83
2019-03-24T01:26:10.720Z,3.74
2019-03-24T01:28:39.176Z,3.74
2019-03-24T01:31:07.667Z,3.59
2019-03-24T01:33:36.121Z,3.56
2019-03-24T01:36:04.625Z,3.56
2019-03-24T01:38:33.051Z,3.70
2019-03-24T01:41:01.565Z,3.54
2019-03-24T01:43:30.220Z,3.57
2019-03-24T01:45:59.048Z,3.44
2019-03-24T01:48:27.571Z,3.44
2019-03-24T01:50:56.060Z,3.59
2019-03-24T01:53:24.538Z,3.56
2019-03-24T01:55:53.195Z,3.49
2019-03-24T01:58:21.620Z,3.58
2019-03-24T02:00:50.388Z,3.57
2019-03-24T02:03:18.860Z,3.55
2019-03-24T02:05:47.283Z,3.45
2019-03-24T02:08:15.750Z,3.35
2019-03-24T02:10:44.244Z,3.23
2019-03-24T02:13:12.706Z,2.98
2019-03-24T02:15:41.191Z,3.00
2019-03-24T02:18:09.853Z,2.92
2019-03-24T02:20:38.317Z,3.02
2019-03-24T02:23:06.791Z,3.04
2019-03-24T02:25:35.239Z,3.05
2019-03-24T02:28:03.793Z,3.11
2019-03-24T02:30:32.321Z,3.07
2019-03-24T02:33:00.835Z,3.06
2019-03-24T02:35:29.256Z,3.07
2019-03-24T02:37:57.945Z,2.93
2019-03-24T02:40:26.375Z,2.99
2019-03-24T02:42:54.821Z,3.06
2019-03-24T02:45:23.252Z,3.04
2019-03-24T02:47:51.762Z,3.07
2019-03-24T02:50:20.291Z,3.05
2019-03-24T02:52:48.780Z,3.02
2019-03-24T02:55:17.254Z,3.00
2019-03-24T02:57:45.764Z,2.88
2019-03-24T03:00:15.135Z,2.79
2019-03-24T03:02:43.574Z,2.61
2019-03-24T03:05:13.162Z,2.73
2019-03-24T03:07:41.654Z,2.72
2019-03-24T03:10:10.689Z,2.61
2019-03-24T03:12:39.284Z,2.48
2019-03-24T03:15:08.719Z,2.42
2019-03-24T03:17:37.281Z,2.60
2019-03-24T03:20:07.526Z,2.51
2019-03-24T03:22:36.009Z,2.42
2019-03-24T03:25:09.330Z,2.31
2019-03-24T03:27:37.756Z,2.42
2019-03-24T03:30:09.922Z,2.32
2019-03-24T03:32:38.480Z,2.38
2019-03-24T03:35:08.018Z,2.40
2019-03-24T03:37:36.697Z,2.40
2019-03-24T03:40:07.289Z,2.45
2019-03-24T03:42:36.258Z,2.23
2019-03-24T03:45:05.919Z,2.12
2019-03-24T03:47:34.374Z,2.07
2019-03-24T03:50:02.848Z,2.18
2019-03-24T03:52:31.300Z,2.06
2019-03-24T03:54:59.723Z,2.04
2019-03-24T03:57:28.237Z,2.06
2019-03-24T03:59:56.687Z,2.19
2019-03-24T04:02:25.186Z,2.18
2019-03-24T04:04:53.954Z,2.18
2019-03-24T04:07:22.390Z,2.13
2019-03-24T04:09:50.832Z,2.08
2019-03-24T04:12:19.495Z,2.03
2019-03-24T04:14:47.971Z,2.06
2019-03-24T04:17:16.433Z,2.13
2019-03-24T04:19:44.931Z,2.18
2019-03-24T04:22:13.341Z,2.10
2019-03-24T04:24:41.813Z,2.22
2019-03-24T04:27:10.234Z,1.84
2019-03-24T04:29:38.665Z,1.60
2019-03-24T04:32:07.180Z,1.52
2019-03-24T04:34:35.644Z,1.61
2019-03-24T04:37:04.071Z,1.65
2019-03-24T04:39:32.795Z,1.77
2019-03-24T04:42:01.219Z,1.70
2019-03-24T04:44:29.640Z,1.79
2019-03-24T04:46:58.101Z,1.80
2019-03-24T04:49:26.533Z,1.92
2019-03-24T04:51:54.985Z,1.87
2019-03-24T04:54:23.409Z,1.86
2019-03-24T04:56:51.875Z,1.90
2019-03-24T04:59:20.300Z,1.82
2019-03-24T05:01:48.788Z,1.75
2019-03-24T05:04:17.331Z,1.67
2019-03-24T05:06:45.896Z,1.73
2019-03-24T05:09:15.473Z,1.63
2019-03-24T05:11:43.949Z,1.73
2019-03-24T05:14:12.424Z,1.70
2019-03-24T05:16:40.849Z,1.73
2019-03-24T05:19:10.969Z,1.75
2019-03-24T05:21:39.405Z,1.72
2019-03-24T05:24:07.842Z,1.64
2019-03-24T05:26:36.285Z,1.70
2019-03-24T05:29:04.877Z,1.67
2019-03-24T05:31:33.326Z,1.73
2019-03-24T05:34:01.821Z,1.79
2019-03-24T05:36:30.274Z,1.92
2019-03-24T05:38:58.697Z,1.57
2019-03-24T05:41:27.187Z,1.42
2019-03-24T05:43:55.713Z,1.28
2019-03-24T05:46:24.147Z,1.45
2019-03-24T05:48:52.580Z,1.48
2019-03-24T05:51:21.044Z,1.55
2019-03-24T05:53:49.462Z,1.57
2019-03-24T05:56:17.942Z,1.83
2019-03-24T05:58:46.464Z,2.09
2019-03-24T06:01:14.887Z,2.38
2019-03-24T06:03:43.427Z,2.35
2019-03-24T06:06:11.890Z,2.38
2019-03-24T06:08:40.330Z,2.63
2019-03-24T06:11:08.765Z,2.98
2019-03-24T06:13:37.271Z,3.24
2019-03-24T06:16:05.870Z,3.54
2019-03-24T06:18:34.315Z,3.80
2019-03-24T06:21:02.760Z,4.06
2019-03-24T06:23:31.184Z,4.27
2019-03-24T06:25:59.663Z,4.63
2019-03-24T06:28:28.089Z,5.15
2019-03-24T06:30:56.528Z,5.17
2019-03-24T06:33:25.047Z,5.33
2019-03-24T06:35:53.513Z,5.59
2019-03-24T06:38:22.010Z,5.80
2019-03-24T06:40:50.495Z,5.93
2019-03-24T06:43:19.081Z,6.31
2019-03-24T06:45:47.571Z,6.70
2019-03-24T06:48:16.018Z,6.90
2019-03-24T06:50:44.473Z,7.10
2019-03-24T06:53:12.909Z,7.10
2019-03-24T06:55:41.500Z,7.14
2019-03-24T06:58:09.998Z,7.56
2019-03-24T07:00:38.521Z,7.61
2019-03-24T07:03:07.044Z,8.05
2019-03-24T07:05:35.557Z,8.17
2019-03-24T07:08:04.100Z,8.38
2019-03-24T07:10:32.530Z,8.52
2019-03-24T07:13:01.029Z,8.83
2019-03-24T07:15:30.013Z,9.17
2019-03-24T07:18:08.187Z,9.51
2019-03-24T07:20:28.689Z,9.79
2019-03-24T07:22:57.197Z,10.02
2019-03-24T07:25:25.637Z,10.29
2019-03-24T07:27:56.746Z,10.56
2019-03-24T07:30:25.173Z,10.98
2019-03-24T07:32:53.630Z,11.27
2019-03-24T07:35:22.148Z,11.70
2019-03-24T07:37:50.604Z,12.02
2019-03-24T07:40:19.285Z,12.42
2019-03-24T07:42:47.824Z,12.75
2019-03-24T07:45:16.490Z,13.15
2019-03-24T07:47:44.947Z,13.47
2019-03-24T07:50:13.851Z,13.80
2019-03-24T07:52:42.276Z,14.31
2019-03-24T07:55:10.949Z,14.44
2019-03-24T07:57:39.497Z,14.62
2019-03-24T08:00:09.780Z,15.07
2019-03-24T08:02:38.267Z,15.73
2019-03-24T08:05:07.468Z,16.24
2019-03-24T08:07:36.002Z,16.87
2019-03-24T08:10:06.198Z,17.24
2019-03-24T08:12:34.707Z,17.21
2019-03-24T08:15:03.464Z,17.77
2019-03-24T08:17:31.908Z,18.47
2019-03-24T08:20:00.392Z,19.04
2019-03-24T08:22:28.933Z,19.30
2019-03-24T08:24:57.368Z,19.54
2019-03-24T08:27:25.817Z,20.04
2019-03-24T08:29:54.408Z,20.14
2019-03-24T08:32:22.901Z,20.56
2019-03-24T08:34:51.370Z,20.99
2019-03-24T08:37:19.870Z,20.93
2019-03-24T08:39:48.455Z,21.56
2019-03-24T08:42:16.925Z,21.98
2019-03-24T08:44:45.420Z,21.97
2019-03-24T08:47:13.923Z,22.88
2019-03-24T08:49:42.455Z,23.11
2019-03-24T08:52:10.963Z,23.65
2019-03-24T08:54:39.439Z,24.04
2019-03-24T08:57:07.977Z,23.89
2019-03-24T08:59:36.438Z,24.28
2019-03-24T09:02:05.023Z,24.82
2019-03-24T09:04:33.547Z,24.73
2019-03-24T09:07:02.020Z,24.97
2019-03-24T09:09:30.465Z,25.34
2019-03-24T09:11:58.922Z,25.13
2019-03-24T09:14:27.481Z,25.57
2019-03-24T09:16:55.949Z,25.26
2019-03-24T09:19:24.395Z,25.36
2019-03-24T09:21:52.863Z,25.31
2019-03-24T09:24:21.413Z,25.62
2019-03-24T09:26:49.827Z,25.89
2019-03-24T09:29:18.303Z,26.66
2019-03-24T09:31:46.825Z,26.64
2019-03-24T09:34:15.314Z,26.89
2019-03-24T09:36:43.797Z,27.75
2019-03-24T09:39:12.230Z,27.49
2019-03-24T09:41:40.802Z,27.72
2019-03-24T09:44:09.227Z,28.09
2019-03-24T09:46:37.664Z,28.16
2019-03-24T09:49:06.207Z,27.64
2019-03-24T09:51:34.637Z,27.76
2019-03-24T09:54:03.169Z,28.06
2019-03-24T09:56:31.668Z,28.06
2019-03-24T09:59:00.143Z,28.18
2019-03-24T10:01:28.571Z,28.63
2019-03-24T10:03:57.294Z,28.63
2019-03-24T10:06:25.746Z,28.62
2019-03-24T10:08:54.250Z,27.24
2019-03-24T10:11:22.703Z,28.40
2019-03-24T10:13:51.150Z,27.46
2019-03-24T10:16:19.601Z,27.36
2019-03-24T10:18:48.054Z,27.81
2019-03-24T10:21:16.498Z,28.30
2019-03-24T10:23:44.960Z,27.19
2019-03-24T10:26:13.402Z,28.13
2019-03-24T10:28:41.882Z,28.03
2019-03-24T10:31:10.319Z,28.23
2019-03-24T10:33:38.796Z,27.92
2019-03-24T10:36:07.220Z,27.57
2019-03-24T10:38:35.647Z,26.90
2019-03-24T10:41:04.261Z,27.40
2019-03-24T10:43:32.687Z,27.58
2019-03-24T10:46:02.404Z,27.25
2019-03-24T10:48:33.822Z,27.94
2019-03-24T10:51:01.062Z,27.32
2019-03-24T10:53:29.499Z,27.87
2019-03-24T10:55:58.077Z,28.38
2019-03-24T10:58:26.602Z,27.99
2019-03-24T11:00:55.034Z,27.68
2019-03-24T11:03:23.611Z,26.89
2019-03-24T11:05:52.111Z,27.26
2019-03-24T11:08:20.638Z,26.13
2019-03-24T11:10:49.116Z,27.44
2019-03-24T11:13:17.557Z,27.52
2019-03-24T11:15:46.068Z,26.38
2019-03-24T11:18:14.638Z,25.12
2019-03-24T11:20:43.142Z,25.76
2019-03-24T11:23:12.394Z,25.14
2019-03-24T11:25:40.889Z,22.26
2019-03-24T11:28:09.337Z,22.29
2019-03-24T11:30:37.821Z,22.17
2019-03-24T11:33:06.398Z,22.89
2019-03-24T11:35:34.846Z,22.78
2019-03-24T11:38:03.380Z,22.46
2019-03-24T11:40:31.901Z,22.33
2019-03-24T11:43:00.341Z,22.13
2019-03-24T11:45:28.895Z,21.88
2019-03-24T11:47:57.323Z,21.64
2019-03-24T11:50:25.783Z,21.52
2019-03-24T11:52:54.293Z,21.48
2019-03-24T11:55:22.774Z,21.21
2019-03-24T11:57:51.592Z,20.83
2019-03-24T12:00:23.240Z,20.58
2019-03-24T12:02:51.820Z,20.61
2019-03-24T12:05:20.316Z,20.72
2019-03-24T12:07:48.768Z,20.71
2019-03-24T12:10:17.386Z,20.12
2019-03-24T12:12:45.888Z,19.47
2019-03-24T12:15:14.485Z,19.54
2019-03-24T12:17:42.986Z,19.67
2019-03-24T12:20:11.865Z,20.08
2019-03-24T12:22:40.350Z,20.05
2019-03-24T12:25:08.915Z,19.21
2019-03-24T12:27:37.515Z,19.36
2019-03-24T12:30:08.683Z,19.42
2019-03-24T12:32:37.285Z,19.52
2019-03-24T12:35:07.588Z,19.51
2019-03-24T12:37:36.159Z,19.34
2019-03-24T12:40:07.262Z,18.92
2019-03-24T12:42:35.709Z,18.84
2019-03-24T12:45:08.272Z,18.31
2019-03-24T12:47:36.813Z,18.49
2019-03-24T12:50:09.495Z,18.53
2019-03-24T12:52:38.339Z,18.19
2019-03-24T12:55:07.406Z,18.06
2019-03-24T12:57:35.839Z,18.24
2019-03-24T13:00:06.947Z,18.01
2019-03-24T13:02:35.438Z,18.13
2019-03-24T13:05:05.816Z,18.02
2019-03-24T13:07:34.359Z,17.97
2019-03-24T13:10:03.167Z,17.77
2019-03-24T13:12:31.695Z,17.56
2019-03-24T13:15:00.422Z,17.89
2019-03-24T13:17:28.992Z,17.99
2019-03-24T13:19:57.915Z,18.05
2019-03-24T13:22:26.372Z,18.13
2019-03-24T13:24:54.839Z,17.99
2019-03-24T13:27:23.310Z,17.86
2019-03-24T13:29:51.703Z,17.76
2019-03-24T13:32:20.247Z,17.82
2019-03-24T13:34:48.683Z,17.75
2019-03-24T13:37:17.225Z,17.56
2019-03-24T13:39:45.669Z,17.30
2019-03-24T13:42:14.241Z,16.99
2019-03-24T13:44:42.837Z,16.96
2019-03-24T13:47:11.298Z,16.64
2019-03-24T13:49:39.820Z,16.92
2019-03-24T13:52:08.420Z,16.89
2019-03-24T13:54:37.008Z,17.07
2019-03-24T13:57:05.584Z,16.99
2019-03-24T13:59:34.217Z,16.83
2019-03-24T14:02:02.798Z,16.88
2019-03-24T14:04:31.305Z,16.70
2019-03-24T14:06:59.887Z,16.74
2019-03-24T14:09:28.316Z,16.71
2019-03-24T14:11:56.868Z,16.31
2019-03-24T14:14:25.303Z,16.56
2019-03-24T14:16:53.837Z,16.26
2019-03-24T14:19:22.550Z,16.35
2019-03-24T14:21:51.002Z,16.32
2019-03-24T14:24:19.518Z,16.32
2019-03-24T14:26:48.072Z,16.33
2019-03-24T14:29:16.526Z,16.21
2019-03-24T14:31:44.991Z,16.22
2019-03-24T14:34:13.459Z,16.28
2019-03-24T14:36:41.882Z,16.25
2019-03-24T14:39:10.499Z,15.94
2019-03-24T14:41:39.028Z,16.05
2019-03-24T14:44:07.434Z,15.89
2019-03-24T14:46:35.887Z,15.70
2019-03-24T14:49:04.469Z,15.70
2019-03-24T14:51:32.994Z,15.60
2019-03-24T14:54:01.500Z,15.53
2019-03-24T14:56:30.027Z,15.57
2019-03-24T14:58:58.527Z,15.42
2019-03-24T15:01:26.998Z,15.51
2019-03-24T15:03:55.552Z,15.39
2019-03-24T15:06:24.142Z,15.31
2019-03-24T15:08:52.596Z,15.34
2019-03-24T15:11:21.127Z,15.33
2019-03-24T15:13:49.587Z,15.32
2019-03-24T15:16:18.023Z,15.04
2019-03-24T15:18:46.494Z,14.84
2019-03-24T15:21:15.971Z,14.82
2019-03-24T15:23:44.518Z,14.95
2019-03-24T15:26:12.995Z,14.92
2019-03-24T15:28:41.426Z,15.04
2019-03-24T15:31:09.942Z,14.87
2019-03-24T15:33:38.523Z,14.84
2019-03-24T15:36:07.305Z,14.82
2019-03-24T15:38:35.832Z,14.94
2019-03-24T15:41:04.506Z,14.99
2019-03-24T15:43:32.991Z,14.92
2019-03-24T15:46:01.508Z,14.79
2019-03-24T15:48:30.005Z,14.77
2019-03-24T15:50:58.469Z,14.65
2019-03-24T15:53:26.897Z,14.64
2019-03-24T15:55:55.403Z,14.73
2019-03-24T15:58:23.868Z,14.61
2019-03-24T16:00:52.441Z,14.55
2019-03-24T16:03:20.950Z,14.48
2019-03-24T16:05:49.570Z,14.42
2019-03-24T16:08:18.180Z,14.23
2019-03-24T16:10:46.680Z,14.05
2019-03-24T16:13:15.154Z,14.07
2019-03-24T16:15:45.602Z,13.93
2019-03-24T16:18:14.328Z,13.70
2019-03-24T16:20:42.825Z,13.70
2019-03-24T16:23:11.334Z,13.73
2019-03-24T16:25:39.869Z,13.56
2019-03-24T16:28:08.438Z,13.71
2019-03-24T16:30:36.998Z,13.62
2019-03-24T16:33:05.954Z,13.63
2019-03-24T16:35:34.407Z,13.52
2019-03-24T16:38:02.938Z,13.45
2019-03-24T16:40:31.449Z,13.49
2019-03-24T16:42:59.915Z,13.16
2019-03-24T16:45:30.031Z,12.90
2019-03-24T16:47:58.535Z,12.97
2019-03-24T16:50:27.178Z,12.87
2019-03-24T16:52:55.688Z,12.92
2019-03-24T16:55:24.202Z,12.78
2019-03-24T16:57:53.211Z,12.72
2019-03-24T17:00:22.004Z,12.52
2019-03-24T17:02:50.507Z,12.23
2019-03-24T17:05:19.126Z,12.41
2019-03-24T17:07:47.728Z,12.54
2019-03-24T17:10:16.331Z,12.13
2019-03-24T17:12:44.931Z,12.33
2019-03-24T17:15:14.001Z,11.88
2019-03-24T17:17:42.512Z,12.00
2019-03-24T17:20:11.137Z,11.95
2019-03-24T17:22:39.564Z,11.92
2019-03-24T17:25:08.837Z,11.77
2019-03-24T17:27:37.371Z,11.92
2019-03-24T17:30:08.897Z,11.86
2019-03-24T17:32:37.447Z,11.78
2019-03-24T17:35:07.447Z,11.51
2019-03-24T17:37:35.940Z,11.62
2019-03-24T17:40:09.490Z,11.47
2019-03-24T17:42:38.081Z,11.40
2019-03-24T17:45:08.573Z,11.32
2019-03-24T17:47:37.116Z,11.30
2019-03-24T17:50:11.908Z,11.23
2019-03-24T17:52:39.745Z,11.17
2019-03-24T17:55:08.468Z,11.10
2019-03-24T17:57:37.035Z,10.79
2019-03-24T18:00:08.602Z,10.82
2019-03-24T18:02:37.247Z,10.89
2019-03-24T18:05:07.839Z,10.97
2019-03-24T18:07:36.289Z,10.73
2019-03-24T18:10:05.629Z,10.67
2019-03-24T18:12:34.160Z,10.53
2019-03-24T18:15:02.708Z,10.35
2019-03-24T18:17:31.270Z,10.42
2019-03-24T18:20:00.345Z,10.19
2019-03-24T18:22:28.881Z,10.19
2019-03-24T18:24:57.338Z,10.18
2019-03-24T18:27:25.957Z,10.07
2019-03-24T18:29:54.403Z,9.95
2019-03-24T18:32:23.289Z,9.84
2019-03-24T18:34:51.880Z,9.65
2019-03-24T18:37:20.520Z,9.50
2019-03-24T18:39:49.015Z,9.37
2019-03-24T18:42:17.521Z,9.32
2019-03-24T18:44:46.094Z,9.14
2019-03-24T18:47:14.623Z,8.92
2019-03-24T18:49:43.198Z,8.78
2019-03-24T18:52:22.060Z,8.64
2019-03-24T18:54:42.271Z,8.58
2019-03-24T18:57:10.782Z,8.59
2019-03-24T18:59:39.585Z,8.54
2019-03-24T19:02:08.052Z,8.49
2019-03-24T19:04:36.484Z,8.43
2019-03-24T19:07:05.091Z,8.41
2019-03-24T19:09:33.536Z,8.33
2019-03-24T19:12:02.012Z,8.33
2019-03-24T19:14:30.429Z,8.42
2019-03-24T19:16:58.996Z,8.39
2019-03-24T19:19:27.539Z,8.36
2019-03-24T19:21:56.129Z,8.47
2019-03-24T19:24:24.638Z,8.27
2019-03-24T19:26:53.058Z,8.28
2019-03-24T19:29:21.508Z,8.42
2019-03-24T19:31:49.963Z,8.32
2019-03-24T19:34:18.391Z,8.19
2019-03-24T19:36:47.833Z,8.30
2019-03-24T19:39:16.337Z,8.38
2019-03-24T19:41:44.923Z,8.25
2019-03-24T19:44:13.471Z,8.29
2019-03-24T19:46:41.924Z,8.22
2019-03-24T19:49:10.414Z,8.28
2019-03-24T19:51:39.002Z,8.20
2019-03-24T19:54:07.449Z,8.10
2019-03-24T19:56:35.962Z,8.11
2019-03-24T19:59:04.484Z,8.16
2019-03-24T20:01:32.964Z,8.35
2019-03-24T20:04:01.411Z,8.12
2019-03-24T20:06:29.847Z,8.31
2019-03-24T20:08:58.327Z,7.99
2019-03-24T20:11:27.071Z,7.95
2019-03-24T20:13:55.565Z,7.85
2019-03-24T20:16:24.065Z,7.94
2019-03-24T20:18:52.823Z,8.04
2019-03-24T20:21:21.254Z,7.95
2019-03-24T20:23:49.766Z,7.94
2019-03-24T20:26:18.300Z,7.87
2019-03-24T20:28:46.800Z,7.70
2019-03-24T20:31:15.382Z,7.74
2019-03-24T20:33:44.073Z,7.56
2019-03-24T20:36:12.494Z,7.61
2019-03-24T20:38:41.018Z,7.54
2019-03-24T20:41:09.531Z,7.42
2019-03-24T20:43:37.955Z,7.33
2019-03-24T20:46:06.454Z,7.26
2019-03-24T20:48:34.995Z,7.42
2019-03-24T20:51:03.513Z,7.36
2019-03-24T20:53:32.022Z,7.36
2019-03-24T20:56:00.526Z,7.42
2019-03-24T20:58:29.038Z,7.26
2019-03-24T21:00:57.552Z,7.19
2019-03-24T21:03:26.287Z,7.27
2019-03-24T21:05:56.420Z,7.21
2019-03-24T21:08:24.925Z,7.11
2019-03-24T21:10:53.497Z,7.05
2019-03-24T21:13:21.944Z,6.98
2019-03-24T21:15:51.930Z,6.88
2019-03-24T21:18:20.474Z,6.90
2019-03-24T21:20:49.142Z,6.97
2019-03-24T21:23:28.857Z,6.86
2019-03-24T21:25:47.829Z,6.73
2019-03-24T21:28:19.213Z,6.72
2019-03-24T21:30:47.740Z,6.50
2019-03-24T21:33:16.165Z,6.61
2019-03-24T21:35:44.711Z,6.43
2019-03-24T21:38:13.266Z,6.57
2019-03-24T21:40:41.771Z,6.59
2019-03-24T21:43:10.244Z,6.23
2019-03-24T21:45:38.801Z,6.60
2019-03-24T21:48:07.474Z,6.45
2019-03-24T21:50:35.890Z,6.33
2019-03-24T21:53:04.575Z,6.26
2019-03-24T21:55:33.066Z,6.10
2019-03-24T21:58:01.760Z,5.94
2019-03-24T22:00:34.785Z,5.90
2019-03-24T22:03:03.379Z,5.85
2019-03-24T22:05:31.814Z,5.91
2019-03-24T22:08:00.330Z,5.93
2019-03-24T22:10:28.856Z,5.92
2019-03-24T22:12:57.394Z,6.02
2019-03-24T22:15:25.889Z,6.16
2019-03-24T22:17:54.371Z,6.22
2019-03-24T22:20:22.868Z,6.16
2019-03-24T22:22:54.219Z,6.14
2019-03-24T22:25:22.681Z,6.17
2019-03-24T22:27:51.107Z,6.18
2019-03-24T22:30:19.911Z,6.18
2019-03-24T22:32:48.368Z,6.20
2019-03-24T22:35:16.975Z,6.15
2019-03-24T22:37:45.480Z,6.12
2019-03-24T22:40:14.185Z,6.16
2019-03-24T22:42:42.692Z,6.18
2019-03-24T22:45:11.577Z,6.15
2019-03-24T22:47:40.029Z,6.22
2019-03-24T22:50:09.095Z,6.19
2019-03-24T22:52:38.002Z,6.21
2019-03-24T22:55:08.527Z,6.22
2019-03-24T22:57:36.977Z,6.21
2019-03-24T23:00:12.147Z,6.26
2019-03-24T23:02:40.717Z,6.28
2019-03-24T23:05:09.304Z,6.34
2019-03-24T23:07:37.904Z,6.31
2019-03-24T23:10:06.411Z,6.31
2019-03-24T23:12:35.139Z,6.31
2019-03-24T23:15:05.039Z,6.35
2019-03-24T23:17:33.481Z,6.36
2019-03-24T23:20:01.960Z,6.34
2019-03-24T23:22:30.456Z,6.41
2019-03-24T23:24:58.946Z,6.36
2019-03-24T23:27:27.416Z,6.36
2019-03-24T23:29:55.837Z,6.36
2019-03-24T23:32:24.301Z,6.37
2019-03-24T23:34:52.741Z,6.34
2019-03-24T23:37:21.165Z,6.35
2019-03-24T23:39:49.634Z,6.36
2019-03-24T23:42:18.126Z,6.36
2019-03-24T23:44:46.574Z,6.38
2019-03-24T23:47:14.989Z,6.37
2019-03-24T23:49:43.482Z,6.39
2019-03-24T23:52:11.931Z,6.35
2019-03-24T23:54:40.347Z,6.35
2019-03-24T23:57:08.765Z,6.45
2019-03-24T23:59:37.220Z,6.49
